Thompson, Missouri
Current Conditions -  °F | °C
As of 8:54 PM on Friday 21 Nov 2014 (Local Time) from KCOU Reporting Station
Overcast Overcast  
Wind Chill: 38°   Ceiling: 1600
Heat Index: 45°   Visibility: 10mi
Dew Point: 34°   Wind: 16mph
Humidity: 65%   Direction: 160°SSE
Pressure: 30.15"   Gusts: NA
Location:  39.19°N, 91.98°W
Report Text: KCOU 220254Z AUTO 16014KT 10SM OVC016 07/01 A3015 RMK AO2 SLP214 60000 T00720011 58008
Loading
Personal Weather Stations






























Interactive Weather Map New forecast layout! Learn more

10-Day Weather Forecast

Advertisements
Track Severe Weather on mobile